sensor_id;sensor_type;location;lat;lon;timestamp;pressure;altitude;pressure_sealevel;temperature;humidity
3598;BME280;1813;52.016;8.714;2023-04-21T00:01:43;-16261.94;;;-139.71;81.53
3598;BME280;1813;52.016;8.714;2023-04-21T00:04:17;-16261.94;;;-139.71;81.61
3598;BME280;1813;52.016;8.714;2023-04-21T00:06:51;-16261.94;;;-139.71;81.62
3598;BME280;1813;52.016;8.714;2023-04-21T00:09:28;-16261.94;;;-139.71;81.61
3598;BME280;1813;52.016;8.714;2023-04-21T00:12:03;-16261.94;;;-139.71;81.50
3598;BME280;1813;52.016;8.714;2023-04-21T00:14:36;-16261.94;;;-139.71;81.32
3598;BME280;1813;52.016;8.714;2023-04-21T00:17:10;-16261.94;;;-139.71;81.49
3598;BME280;1813;52.016;8.714;2023-04-21T00:19:44;-16261.94;;;-139.71;81.47
3598;BME280;1813;52.016;8.714;2023-04-21T00:22:18;-16261.94;;;-139.71;81.49
3598;BME280;1813;52.016;8.714;2023-04-21T00:24:54;-16261.94;;;-139.71;81.67
3598;BME280;1813;52.016;8.714;2023-04-21T00:27:28;-16261.94;;;-139.71;81.75
3598;BME280;1813;52.016;8.714;2023-04-21T00:30:02;-16261.94;;;-139.71;81.77
3598;BME280;1813;52.016;8.714;2023-04-21T00:32:36;-16261.94;;;-139.71;81.72
3598;BME280;1813;52.016;8.714;2023-04-21T00:35:10;-16261.94;;;-139.71;81.55
3598;BME280;1813;52.016;8.714;2023-04-21T00:37:44;-16261.94;;;-139.71;81.60
3598;BME280;1813;52.016;8.714;2023-04-21T00:40:22;-16261.94;;;-139.71;81.49
3598;BME280;1813;52.016;8.714;2023-04-21T00:42:57;-16261.94;;;-139.71;81.65
3598;BME280;1813;52.016;8.714;2023-04-21T00:45:32;-16261.94;;;-139.71;81.75
3598;BME280;1813;52.016;8.714;2023-04-21T00:48:06;-16261.94;;;-139.71;81.71
3598;BME280;1813;52.016;8.714;2023-04-21T00:50:40;-16261.94;;;-139.71;81.51
3598;BME280;1813;52.016;8.714;2023-04-21T00:53:14;-16261.94;;;-139.71;81.79
3598;BME280;1813;52.016;8.714;2023-04-21T00:55:52;-16261.94;;;-139.71;81.96
3598;BME280;1813;52.016;8.714;2023-04-21T00:58:25;-16261.94;;;-139.71;81.74
3598;BME280;1813;52.016;8.714;2023-04-21T01:00:59;-16261.94;;;-139.71;81.60
3598;BME280;1813;52.016;8.714;2023-04-21T01:03:35;-16261.94;;;-139.71;81.22
3598;BME280;1813;52.016;8.714;2023-04-21T01:06:09;-16261.94;;;-139.71;80.87
3598;BME280;1813;52.016;8.714;2023-04-21T01:08:44;-16261.94;;;-139.71;80.79
3598;BME280;1813;52.016;8.714;2023-04-21T01:11:22;-16261.94;;;-139.71;80.94
3598;BME280;1813;52.016;8.714;2023-04-21T01:13:58;-16261.94;;;-139.71;80.58
3598;BME280;1813;52.016;8.714;2023-04-21T01:16:31;-16261.94;;;-139.71;80.67
3598;BME280;1813;52.016;8.714;2023-04-21T01:19:06;-16261.94;;;-139.71;80.56
3598;BME280;1813;52.016;8.714;2023-04-21T01:21:44;-16261.94;;;-139.71;80.60
3598;BME280;1813;52.016;8.714;2023-04-21T01:24:17;-16261.94;;;-139.71;80.54
3598;BME280;1813;52.016;8.714;2023-04-21T01:26:52;-16261.94;;;-139.71;80.57
3598;BME280;1813;52.016;8.714;2023-04-21T01:29:25;-16261.94;;;-139.71;80.69
3598;BME280;1813;52.016;8.714;2023-04-21T01:32:04;-16261.94;;;-139.71;80.74
3598;BME280;1813;52.016;8.714;2023-04-21T01:34:38;-16261.94;;;-139.71;80.72
3598;BME280;1813;52.016;8.714;2023-04-21T01:37:18;-16261.94;;;-139.71;80.87
3598;BME280;1813;52.016;8.714;2023-04-21T01:39:58;-16261.94;;;-139.71;81.02
3598;BME280;1813;52.016;8.714;2023-04-21T01:42:33;-16261.94;;;-139.71;81.49
3598;BME280;1813;52.016;8.714;2023-04-21T01:45:08;-16261.94;;;-139.71;81.76
3598;BME280;1813;52.016;8.714;2023-04-21T01:47:42;-16261.94;;;-139.71;81.92
3598;BME280;1813;52.016;8.714;2023-04-21T01:50:17;-16261.94;;;-139.71;81.88
3598;BME280;1813;52.016;8.714;2023-04-21T01:52:53;-16261.94;;;-139.71;82.10
3598;BME280;1813;52.016;8.714;2023-04-21T01:55:27;-16261.94;;;-139.71;82.34
3598;BME280;1813;52.016;8.714;2023-04-21T01:58:01;-16261.94;;;-139.71;82.32
3598;BME280;1813;52.016;8.714;2023-04-21T02:00:35;-16261.94;;;-139.71;82.42
3598;BME280;1813;52.016;8.714;2023-04-21T02:03:09;-16261.94;;;-139.71;82.50
3598;BME280;1813;52.016;8.714;2023-04-21T02:05:43;-16261.94;;;-139.71;82.29
3598;BME280;1813;52.016;8.714;2023-04-21T02:08:19;-16261.94;;;-139.71;82.19
3598;BME280;1813;52.016;8.714;2023-04-21T02:10:53;-16261.94;;;-139.71;82.35
3598;BME280;1813;52.016;8.714;2023-04-21T02:13:27;-16261.94;;;-139.71;82.29
3598;BME280;1813;52.016;8.714;2023-04-21T02:16:01;-16261.94;;;-139.71;82.21
3598;BME280;1813;52.016;8.714;2023-04-21T02:18:35;-16261.94;;;-139.71;82.37
3598;BME280;1813;52.016;8.714;2023-04-21T02:21:09;-16261.94;;;-139.71;82.14
3598;BME280;1813;52.016;8.714;2023-04-21T02:23:47;-16261.94;;;-139.71;82.09
3598;BME280;1813;52.016;8.714;2023-04-21T02:26:21;-16261.94;;;-139.71;82.22
3598;BME280;1813;52.016;8.714;2023-04-21T02:28:54;-16261.94;;;-139.71;82.22
3598;BME280;1813;52.016;8.714;2023-04-21T02:31:28;-16261.94;;;-139.71;82.37
3598;BME280;1813;52.016;8.714;2023-04-21T02:34:02;-16261.94;;;-139.71;82.48
3598;BME280;1813;52.016;8.714;2023-04-21T02:36:36;-16261.94;;;-139.71;82.46
3598;BME280;1813;52.016;8.714;2023-04-21T02:39:12;-16261.94;;;-139.71;82.54
3598;BME280;1813;52.016;8.714;2023-04-21T02:41:46;-16261.94;;;-139.71;82.41
3598;BME280;1813;52.016;8.714;2023-04-21T02:44:20;-16261.94;;;-139.71;82.55
3598;BME280;1813;52.016;8.714;2023-04-21T02:46:53;-16261.94;;;-139.71;82.65
3598;BME280;1813;52.016;8.714;2023-04-21T02:49:27;-16261.94;;;-139.71;82.54
3598;BME280;1813;52.016;8.714;2023-04-21T02:52:01;-16261.94;;;-139.71;82.37
3598;BME280;1813;52.016;8.714;2023-04-21T02:54:37;-16261.94;;;-139.71;82.50
3598;BME280;1813;52.016;8.714;2023-04-21T02:57:11;-16261.94;;;-139.71;82.52
3598;BME280;1813;52.016;8.714;2023-04-21T02:59:45;-16261.94;;;-139.71;82.50
3598;BME280;1813;52.016;8.714;2023-04-21T03:02:19;-16261.94;;;-139.71;82.50
3598;BME280;1813;52.016;8.714;2023-04-21T03:04:53;-16261.94;;;-139.71;82.43
3598;BME280;1813;52.016;8.714;2023-04-21T03:07:27;-16261.94;;;-139.71;82.19
3598;BME280;1813;52.016;8.714;2023-04-21T03:10:04;-16261.94;;;-139.71;82.14
3598;BME280;1813;52.016;8.714;2023-04-21T03:12:38;-16261.94;;;-139.71;82.22
3598;BME280;1813;52.016;8.714;2023-04-21T03:15:12;-16261.94;;;-139.71;82.38
3598;BME280;1813;52.016;8.714;2023-04-21T03:17:46;-16261.94;;;-139.71;82.37
3598;BME280;1813;52.016;8.714;2023-04-21T03:20:21;-16261.94;;;-139.71;82.32
3598;BME280;1813;52.016;8.714;2023-04-21T03:22:55;-16261.94;;;-139.71;82.23
3598;BME280;1813;52.016;8.714;2023-04-21T03:25:31;-16261.94;;;-139.71;82.37
3598;BME280;1813;52.016;8.714;2023-04-21T03:28:06;-16261.94;;;-139.71;82.55
3598;BME280;1813;52.016;8.714;2023-04-21T03:30:40;-16261.94;;;-139.71;82.81
3598;BME280;1813;52.016;8.714;2023-04-21T03:33:13;-16261.94;;;-139.71;83.11
3598;BME280;1813;52.016;8.714;2023-04-21T03:35:47;-16261.94;;;-139.71;83.46
3598;BME280;1813;52.016;8.714;2023-04-21T03:38:21;-16261.94;;;-139.71;83.63
3598;BME280;1813;52.016;8.714;2023-04-21T03:40:58;-16261.94;;;-139.71;83.76
3598;BME280;1813;52.016;8.714;2023-04-21T03:43:32;-16261.94;;;-139.71;83.70
3598;BME280;1813;52.016;8.714;2023-04-21T03:46:06;-16261.94;;;-139.71;83.89
3598;BME280;1813;52.016;8.714;2023-04-21T03:48:39;-16261.94;;;-139.71;83.98
3598;BME280;1813;52.016;8.714;2023-04-21T03:51:13;-16261.94;;;-139.71;84.25
3598;BME280;1813;52.016;8.714;2023-04-21T03:53:47;-16261.94;;;-139.71;84.12
3598;BME280;1813;52.016;8.714;2023-04-21T03:56:23;-16261.94;;;-139.71;84.22
3598;BME280;1813;52.016;8.714;2023-04-21T03:58:57;-16261.94;;;-139.71;84.25
3598;BME280;1813;52.016;8.714;2023-04-21T04:01:31;-16261.94;;;-139.71;84.39
3598;BME280;1813;52.016;8.714;2023-04-21T04:04:05;-16261.94;;;-139.71;84.11
3598;BME280;1813;52.016;8.714;2023-04-21T04:06:39;-16261.94;;;-139.71;84.21
3598;BME280;1813;52.016;8.714;2023-04-21T04:09:13;-16261.94;;;-139.71;84.31
3598;BME280;1813;52.016;8.714;2023-04-21T04:11:50;-16261.94;;;-139.71;84.36
3598;BME280;1813;52.016;8.714;2023-04-21T04:14:24;-16261.94;;;-139.71;84.09
3598;BME280;1813;52.016;8.714;2023-04-21T04:16:57;-16261.94;;;-139.71;83.88
3598;BME280;1813;52.016;8.714;2023-04-21T04:19:31;-16261.94;;;-139.71;83.75
3598;BME280;1813;52.016;8.714;2023-04-21T04:22:06;-16261.94;;;-139.71;83.68
3598;BME280;1813;52.016;8.714;2023-04-21T04:24:39;-16261.94;;;-139.71;83.77
3598;BME280;1813;52.016;8.714;2023-04-21T04:27:17;-16261.94;;;-139.71;83.64
3598;BME280;1813;52.016;8.714;2023-04-21T04:29:51;-16261.94;;;-139.71;83.46
3598;BME280;1813;52.016;8.714;2023-04-21T04:32:24;-16261.94;;;-139.71;83.49
3598;BME280;1813;52.016;8.714;2023-04-21T04:34:59;-16261.94;;;-139.71;83.31
3598;BME280;1813;52.016;8.714;2023-04-21T04:37:35;-16261.94;;;-139.71;83.34
3598;BME280;1813;52.016;8.714;2023-04-21T04:40:09;-16261.94;;;-139.71;83.25
3598;BME280;1813;52.016;8.714;2023-04-21T04:42:45;-16261.94;;;-139.71;83.43
3598;BME280;1813;52.016;8.714;2023-04-21T04:45:19;-16261.94;;;-139.71;83.38
3598;BME280;1813;52.016;8.714;2023-04-21T04:47:55;-16261.94;;;-139.71;83.48
3598;BME280;1813;52.016;8.714;2023-04-21T04:50:29;-16261.94;;;-139.71;83.42
3598;BME280;1813;52.016;8.714;2023-04-21T04:53:03;-16261.94;;;-139.71;83.32
3598;BME280;1813;52.016;8.714;2023-04-21T04:55:37;-16261.94;;;-139.71;83.16
3598;BME280;1813;52.016;8.714;2023-04-21T04:58:14;-16261.94;;;-139.71;83.11
3598;BME280;1813;52.016;8.714;2023-04-21T05:00:47;-16261.94;;;-139.71;83.12
3598;BME280;1813;52.016;8.714;2023-04-21T05:03:21;-16261.94;;;-139.71;82.93
3598;BME280;1813;52.016;8.714;2023-04-21T05:05:55;-16261.94;;;-139.71;83.03
3598;BME280;1813;52.016;8.714;2023-04-21T05:08:29;-16261.94;;;-139.71;82.89
3598;BME280;1813;52.016;8.714;2023-04-21T05:11:02;-16261.94;;;-139.71;82.86
3598;BME280;1813;52.016;8.714;2023-04-21T05:13:39;-16261.94;;;-139.71;82.81
3598;BME280;1813;52.016;8.714;2023-04-21T05:16:13;-16261.94;;;-139.71;83.03
3598;BME280;1813;52.016;8.714;2023-04-21T05:18:47;-16261.94;;;-139.71;82.96
3598;BME280;1813;52.016;8.714;2023-04-21T05:21:24;-16261.94;;;-139.71;82.87
3598;BME280;1813;52.016;8.714;2023-04-21T05:23:59;-16261.94;;;-139.71;82.73
3598;BME280;1813;52.016;8.714;2023-04-21T05:26:33;-16261.94;;;-139.71;82.78
3598;BME280;1813;52.016;8.714;2023-04-21T05:29:09;-16261.94;;;-139.71;82.61
3598;BME280;1813;52.016;8.714;2023-04-21T05:31:43;-16261.94;;;-139.71;82.30
3598;BME280;1813;52.016;8.714;2023-04-21T05:34:17;-16261.94;;;-139.71;82.17
3598;BME280;1813;52.016;8.714;2023-04-21T05:36:51;-16261.94;;;-139.71;82.02
3598;BME280;1813;52.016;8.714;2023-04-21T05:39:26;-16261.94;;;-139.71;81.84
3598;BME280;1813;52.016;8.714;2023-04-21T05:42:00;-16261.94;;;-139.71;81.51
3598;BME280;1813;52.016;8.714;2023-04-21T05:44:37;-16261.94;;;-139.71;81.35
3598;BME280;1813;52.016;8.714;2023-04-21T05:47:11;-16261.94;;;-139.71;81.42
3598;BME280;1813;52.016;8.714;2023-04-21T05:49:45;-16261.94;;;-139.71;81.15
3598;BME280;1813;52.016;8.714;2023-04-21T05:52:19;-16261.94;;;-139.71;81.04
3598;BME280;1813;52.016;8.714;2023-04-21T05:54:53;-16261.94;;;-139.71;80.69
3598;BME280;1813;52.016;8.714;2023-04-21T05:57:27;-16261.94;;;-139.71;80.59
3598;BME280;1813;52.016;8.714;2023-04-21T06:00:05;-16261.94;;;-139.71;80.31
3598;BME280;1813;52.016;8.714;2023-04-21T06:02:39;-16261.94;;;-139.71;80.38
3598;BME280;1813;52.016;8.714;2023-04-21T06:05:13;-16261.94;;;-139.71;80.36
3598;BME280;1813;52.016;8.714;2023-04-21T06:07:47;-16261.94;;;-139.71;80.00
3598;BME280;1813;52.016;8.714;2023-04-21T06:10:21;-16261.94;;;-139.71;79.58
3598;BME280;1813;52.016;8.714;2023-04-21T06:12:54;-16261.94;;;-139.71;78.58
3598;BME280;1813;52.016;8.714;2023-04-21T06:15:31;-16261.94;;;-139.71;77.96
3598;BME280;1813;52.016;8.714;2023-04-21T06:18:04;-16261.94;;;-139.71;77.94
3598;BME280;1813;52.016;8.714;2023-04-21T06:20:38;-16261.94;;;-139.71;77.19
3598;BME280;1813;52.016;8.714;2023-04-21T06:23:12;-16261.94;;;-139.71;76.81
3598;BME280;1813;52.016;8.714;2023-04-21T06:25:46;-16261.94;;;-139.71;76.85
3598;BME280;1813;52.016;8.714;2023-04-21T06:28:20;-16261.94;;;-139.71;76.56
3598;BME280;1813;52.016;8.714;2023-04-21T06:30:57;-16261.94;;;-139.71;75.99
3598;BME280;1813;52.016;8.714;2023-04-21T06:33:30;-16261.94;;;-139.71;75.80
3598;BME280;1813;52.016;8.714;2023-04-21T06:36:05;-16261.94;;;-139.71;74.94
3598;BME280;1813;52.016;8.714;2023-04-21T06:38:39;-16261.94;;;-139.71;74.62
3598;BME280;1813;52.016;8.714;2023-04-21T06:41:13;-16261.94;;;-139.71;74.30
3598;BME280;1813;52.016;8.714;2023-04-21T06:43:46;-16261.94;;;-139.71;73.73
3598;BME280;1813;52.016;8.714;2023-04-21T06:46:23;-16261.94;;;-139.71;73.51
3598;BME280;1813;52.016;8.714;2023-04-21T06:48:56;-16261.94;;;-139.71;73.06
3598;BME280;1813;52.016;8.714;2023-04-21T06:51:30;-16261.94;;;-139.71;72.96
3598;BME280;1813;52.016;8.714;2023-04-21T06:54:06;-16261.94;;;-139.71;72.05
3598;BME280;1813;52.016;8.714;2023-04-21T06:56:39;-16261.94;;;-139.71;71.19
3598;BME280;1813;52.016;8.714;2023-04-21T06:59:13;-16261.94;;;-139.71;71.15
3598;BME280;1813;52.016;8.714;2023-04-21T07:01:50;-16261.94;;;-139.71;70.74
3598;BME280;1813;52.016;8.714;2023-04-21T07:04:24;-16261.94;;;-139.71;70.08
3598;BME280;1813;52.016;8.714;2023-04-21T07:07:02;-16261.94;;;-139.71;69.24
3598;BME280;1813;52.016;8.714;2023-04-21T07:09:35;-16261.94;;;-139.71;68.70
3598;BME280;1813;52.016;8.714;2023-04-21T07:12:09;-16261.94;;;-139.71;68.63
3598;BME280;1813;52.016;8.714;2023-04-21T07:14:43;-16261.94;;;-139.71;67.73
3598;BME280;1813;52.016;8.714;2023-04-21T07:17:19;-16261.94;;;-139.71;68.00
3598;BME280;1813;52.016;8.714;2023-04-21T07:19:53;-16261.94;;;-139.71;67.25
3598;BME280;1813;52.016;8.714;2023-04-21T07:22:27;-16261.94;;;-139.71;66.46
3598;BME280;1813;52.016;8.714;2023-04-21T07:25:01;-16261.94;;;-139.71;65.59
3598;BME280;1813;52.016;8.714;2023-04-21T07:27:36;-16261.94;;;-139.71;66.23
3598;BME280;1813;52.016;8.714;2023-04-21T07:30:10;-16261.94;;;-139.71;65.55
3598;BME280;1813;52.016;8.714;2023-04-21T07:32:47;-16261.94;;;-139.71;64.25
3598;BME280;1813;52.016;8.714;2023-04-21T07:35:21;-16261.94;;;-139.71;63.69
3598;BME280;1813;52.016;8.714;2023-04-21T07:37:55;-16261.94;;;-139.71;63.57
3598;BME280;1813;52.016;8.714;2023-04-21T07:40:29;-16261.94;;;-139.71;62.49
3598;BME280;1813;52.016;8.714;2023-04-21T07:43:03;-16261.94;;;-139.71;60.95
3598;BME280;1813;52.016;8.714;2023-04-21T07:45:37;-16261.94;;;-139.71;60.47
3598;BME280;1813;52.016;8.714;2023-04-21T07:48:13;-16261.94;;;-139.71;61.72
3598;BME280;1813;52.016;8.714;2023-04-21T07:50:47;-16261.94;;;-139.71;61.14
3598;BME280;1813;52.016;8.714;2023-04-21T07:53:21;-16261.94;;;-139.71;60.24
3598;BME280;1813;52.016;8.714;2023-04-21T07:55:54;-16261.94;;;-139.71;60.20
3598;BME280;1813;52.016;8.714;2023-04-21T07:58:28;-16261.94;;;-139.71;59.82
3598;BME280;1813;52.016;8.714;2023-04-21T08:01:02;-16261.94;;;-139.71;59.30
3598;BME280;1813;52.016;8.714;2023-04-21T08:03:39;-16261.94;;;-139.71;59.03
3598;BME280;1813;52.016;8.714;2023-04-21T08:06:13;-16261.94;;;-139.71;58.49
3598;BME280;1813;52.016;8.714;2023-04-21T08:08:46;-16261.94;;;-139.71;58.14
3598;BME280;1813;52.016;8.714;2023-04-21T08:11:20;-16261.94;;;-139.71;57.41
3598;BME280;1813;52.016;8.714;2023-04-21T08:13:54;-16261.94;;;-139.71;56.79
3598;BME280;1813;52.016;8.714;2023-04-21T08:16:28;-16261.94;;;-139.71;55.30
3598;BME280;1813;52.016;8.714;2023-04-21T08:19:06;-16261.94;;;-139.71;55.84
3598;BME280;1813;52.016;8.714;2023-04-21T08:21:40;-16261.94;;;-139.71;56.32
3598;BME280;1813;52.016;8.714;2023-04-21T08:24:13;-16261.94;;;-139.71;55.79
3598;BME280;1813;52.016;8.714;2023-04-21T08:26:47;-16261.94;;;-139.71;56.01
3598;BME280;1813;52.016;8.714;2023-04-21T08:29:21;-16261.94;;;-139.71;56.54
3598;BME280;1813;52.016;8.714;2023-04-21T08:31:55;-16261.94;;;-139.71;56.68
3598;BME280;1813;52.016;8.714;2023-04-21T08:34:31;-16261.94;;;-139.71;57.02
3598;BME280;1813;52.016;8.714;2023-04-21T08:37:05;-16261.94;;;-139.71;57.12
3598;BME280;1813;52.016;8.714;2023-04-21T08:39:39;-16261.94;;;-139.71;57.45
3598;BME280;1813;52.016;8.714;2023-04-21T08:42:13;-16261.94;;;-139.71;57.36
3598;BME280;1813;52.016;8.714;2023-04-21T08:44:47;-16261.94;;;-139.71;57.62
3598;BME280;1813;52.016;8.714;2023-04-21T08:47:23;-16261.94;;;-139.71;57.97
3598;BME280;1813;52.016;8.714;2023-04-21T08:49:59;-16261.94;;;-139.71;57.96
3598;BME280;1813;52.016;8.714;2023-04-21T08:52:33;-16261.94;;;-139.71;58.90
3598;BME280;1813;52.016;8.714;2023-04-21T08:55:08;-16261.94;;;-139.71;57.78
3598;BME280;1813;52.016;8.714;2023-04-21T08:57:43;-16261.94;;;-139.71;57.78
3598;BME280;1813;52.016;8.714;2023-04-21T09:00:18;-16261.94;;;-139.71;56.84
3598;BME280;1813;52.016;8.714;2023-04-21T09:02:53;-16261.94;;;-139.71;54.39
3598;BME280;1813;52.016;8.714;2023-04-21T09:05:31;-16261.94;;;-139.71;53.49
3598;BME280;1813;52.016;8.714;2023-04-21T09:08:08;-16261.94;;;-139.71;50.17
3598;BME280;1813;52.016;8.714;2023-04-21T09:10:42;-16261.94;;;-139.71;50.32
3598;BME280;1813;52.016;8.714;2023-04-21T09:13:17;-16261.94;;;-139.71;50.41
3598;BME280;1813;52.016;8.714;2023-04-21T09:15:52;-16261.94;;;-139.71;50.39
3598;BME280;1813;52.016;8.714;2023-04-21T09:18:28;-16261.94;;;-139.71;50.21
3598;BME280;1813;52.016;8.714;2023-04-21T09:21:09;-16261.94;;;-139.71;50.24
3598;BME280;1813;52.016;8.714;2023-04-21T09:23:45;-16261.94;;;-139.71;49.11
3598;BME280;1813;52.016;8.714;2023-04-21T09:26:20;-16261.94;;;-139.71;48.85
3598;BME280;1813;52.016;8.714;2023-04-21T09:28:56;-16261.94;;;-139.71;49.29
3598;BME280;1813;52.016;8.714;2023-04-21T09:31:34;-16261.94;;;-139.71;48.40
3598;BME280;1813;52.016;8.714;2023-04-21T09:34:17;-16261.94;;;-139.71;48.63
3598;BME280;1813;52.016;8.714;2023-04-21T09:37:01;-16261.94;;;-139.71;48.92
3598;BME280;1813;52.016;8.714;2023-04-21T09:39:36;-16261.94;;;-139.71;48.52
3598;BME280;1813;52.016;8.714;2023-04-21T09:42:10;-16261.94;;;-139.71;48.36
3598;BME280;1813;52.016;8.714;2023-04-21T09:44:44;-16261.94;;;-139.71;47.02
3598;BME280;1813;52.016;8.714;2023-04-21T09:47:18;-16261.94;;;-139.71;48.16
3598;BME280;1813;52.016;8.714;2023-04-21T09:49:53;-16261.94;;;-139.71;47.55
3598;BME280;1813;52.016;8.714;2023-04-21T09:52:30;-16261.94;;;-139.71;47.08
3598;BME280;1813;52.016;8.714;2023-04-21T09:55:10;-16261.94;;;-139.71;47.18
3598;BME280;1813;52.016;8.714;2023-04-21T09:57:46;-16261.94;;;-139.71;46.79
3598;BME280;1813;52.016;8.714;2023-04-21T10:00:22;-16261.94;;;-139.71;46.46
3598;BME280;1813;52.016;8.714;2023-04-21T10:02:59;-16261.94;;;-139.71;46.12
3598;BME280;1813;52.016;8.714;2023-04-21T10:05:40;-16261.94;;;-139.71;46.13
3598;BME280;1813;52.016;8.714;2023-04-21T10:08:17;-16261.94;;;-139.71;45.88
3598;BME280;1813;52.016;8.714;2023-04-21T10:10:51;-16261.94;;;-139.71;45.69
3598;BME280;1813;52.016;8.714;2023-04-21T10:13:25;-16261.94;;;-139.71;45.28
3598;BME280;1813;52.016;8.714;2023-04-21T10:16:04;-16261.94;;;-139.71;44.16
3598;BME280;1813;52.016;8.714;2023-04-21T10:18:41;-16261.94;;;-139.71;44.49
3598;BME280;1813;52.016;8.714;2023-04-21T10:21:17;-16261.94;;;-139.71;44.64
3598;BME280;1813;52.016;8.714;2023-04-21T10:23:56;-16261.94;;;-139.71;44.79
3598;BME280;1813;52.016;8.714;2023-04-21T10:26:33;-16261.94;;;-139.71;44.31
3598;BME280;1813;52.016;8.714;2023-04-21T10:29:07;-16261.94;;;-139.71;44.30
3598;BME280;1813;52.016;8.714;2023-04-21T10:31:51;-16261.94;;;-139.71;43.07
3598;BME280;1813;52.016;8.714;2023-04-21T10:34:29;-16261.94;;;-139.71;43.71
3598;BME280;1813;52.016;8.714;2023-04-21T10:37:15;-16261.94;;;-139.71;43.63
3598;BME280;1813;52.016;8.714;2023-04-21T10:39:55;-16261.94;;;-139.71;43.97
3598;BME280;1813;52.016;8.714;2023-04-21T10:42:33;-16261.94;;;-139.71;44.74
3598;BME280;1813;52.016;8.714;2023-04-21T10:45:09;-16261.94;;;-139.71;44.66
3598;BME280;1813;52.016;8.714;2023-04-21T10:47:47;-16261.94;;;-139.71;44.23
3598;BME280;1813;52.016;8.714;2023-04-21T10:50:22;-16261.94;;;-139.71;44.23
3598;BME280;1813;52.016;8.714;2023-04-21T10:53:07;-16261.94;;;-139.71;43.89
3598;BME280;1813;52.016;8.714;2023-04-21T10:55:48;-16261.94;;;-139.71;44.35
3598;BME280;1813;52.016;8.714;2023-04-21T10:58:22;-16261.94;;;-139.71;44.17
3598;BME280;1813;52.016;8.714;2023-04-21T11:00:57;-16261.94;;;-139.71;44.28
3598;BME280;1813;52.016;8.714;2023-04-21T11:03:33;-16261.94;;;-139.71;44.36
3598;BME280;1813;52.016;8.714;2023-04-21T11:06:13;-16261.94;;;-139.71;44.60
3598;BME280;1813;52.016;8.714;2023-04-21T11:08:54;-16261.94;;;-139.71;44.48
3598;BME280;1813;52.016;8.714;2023-04-21T11:11:31;-16261.94;;;-139.71;45.56
3598;BME280;1813;52.016;8.714;2023-04-21T11:14:06;-16261.94;;;-139.71;45.21
3598;BME280;1813;52.016;8.714;2023-04-21T11:16:41;-16261.94;;;-139.71;44.39
3598;BME280;1813;52.016;8.714;2023-04-21T11:19:15;-16261.94;;;-139.71;44.09
3598;BME280;1813;52.016;8.714;2023-04-21T11:21:50;-16261.94;;;-139.71;42.91
3598;BME280;1813;52.016;8.714;2023-04-21T11:24:25;-16261.94;;;-139.71;42.58
3598;BME280;1813;52.016;8.714;2023-04-21T11:27:02;-16261.94;;;-139.71;42.91
3598;BME280;1813;52.016;8.714;2023-04-21T11:29:36;-16261.94;;;-139.71;42.59
3598;BME280;1813;52.016;8.714;2023-04-21T11:32:10;-16261.94;;;-139.71;42.99
3598;BME280;1813;52.016;8.714;2023-04-21T11:34:44;-16261.94;;;-139.71;43.46
3598;BME280;1813;52.016;8.714;2023-04-21T11:37:23;-16261.94;;;-139.71;42.56
3598;BME280;1813;52.016;8.714;2023-04-21T11:39:58;-16261.94;;;-139.71;41.74
3598;BME280;1813;52.016;8.714;2023-04-21T11:42:35;-16261.94;;;-139.71;40.44
3598;BME280;1813;52.016;8.714;2023-04-21T11:45:15;-16261.94;;;-139.71;38.04
3598;BME280;1813;52.016;8.714;2023-04-21T11:47:49;-16261.94;;;-139.71;39.47
3598;BME280;1813;52.016;8.714;2023-04-21T11:50:32;-16261.94;;;-139.71;39.55
3598;BME280;1813;52.016;8.714;2023-04-21T11:53:08;-16261.94;;;-139.71;39.27
3598;BME280;1813;52.016;8.714;2023-04-21T11:55:42;-16261.94;;;-139.71;36.08
3598;BME280;1813;52.016;8.714;2023-04-21T11:58:19;-16261.94;;;-139.71;35.78
3598;BME280;1813;52.016;8.714;2023-04-21T12:00:53;-16261.94;;;-139.71;34.61
3598;BME280;1813;52.016;8.714;2023-04-21T12:03:27;-16261.94;;;-139.71;34.50
3598;BME280;1813;52.016;8.714;2023-04-21T12:06:01;-16261.94;;;-139.71;33.85
3598;BME280;1813;52.016;8.714;2023-04-21T12:08:36;-16261.94;;;-139.71;33.68
3598;BME280;1813;52.016;8.714;2023-04-21T12:11:15;-16261.94;;;-139.71;33.43
3598;BME280;1813;52.016;8.714;2023-04-21T12:13:51;-16261.94;;;-139.71;32.42
3598;BME280;1813;52.016;8.714;2023-04-21T12:16:26;-16261.94;;;-139.71;33.04
3598;BME280;1813;52.016;8.714;2023-04-21T12:19:00;-16261.94;;;-139.71;32.13
3598;BME280;1813;52.016;8.714;2023-04-21T12:21:36;-16261.94;;;-139.71;32.41
3598;BME280;1813;52.016;8.714;2023-04-21T12:24:11;-16261.94;;;-139.71;32.33
3598;BME280;1813;52.016;8.714;2023-04-21T12:26:44;-16261.94;;;-139.71;31.90
3598;BME280;1813;52.016;8.714;2023-04-21T12:29:21;-16261.94;;;-139.71;33.27
3598;BME280;1813;52.016;8.714;2023-04-21T12:31:55;-16261.94;;;-139.71;32.30
3598;BME280;1813;52.016;8.714;2023-04-21T12:34:29;-16261.94;;;-139.71;32.84
3598;BME280;1813;52.016;8.714;2023-04-21T12:37:03;-16261.94;;;-139.71;32.83
3598;BME280;1813;52.016;8.714;2023-04-21T12:39:36;-16261.94;;;-139.71;32.83
3598;BME280;1813;52.016;8.714;2023-04-21T12:42:11;-16261.94;;;-139.71;32.92
3598;BME280;1813;52.016;8.714;2023-04-21T12:44:47;-16261.94;;;-139.71;32.37
3598;BME280;1813;52.016;8.714;2023-04-21T12:47:21;-16261.94;;;-139.71;31.99
3598;BME280;1813;52.016;8.714;2023-04-21T12:49:55;-16261.94;;;-139.71;31.67
3598;BME280;1813;52.016;8.714;2023-04-21T12:52:29;-16261.94;;;-139.71;32.19
3598;BME280;1813;52.016;8.714;2023-04-21T12:55:03;-16261.94;;;-139.71;32.82
3598;BME280;1813;52.016;8.714;2023-04-21T12:57:37;-16261.94;;;-139.71;33.25
3598;BME280;1813;52.016;8.714;2023-04-21T13:00:14;-16261.94;;;-139.71;33.22
3598;BME280;1813;52.016;8.714;2023-04-21T13:02:48;-16261.94;;;-139.71;32.91
3598;BME280;1813;52.016;8.714;2023-04-21T13:05:22;-16261.94;;;-139.71;32.80
3598;BME280;1813;52.016;8.714;2023-04-21T13:07:56;-16261.94;;;-139.71;32.45
3598;BME280;1813;52.016;8.714;2023-04-21T13:10:30;-16261.94;;;-139.71;32.45
3598;BME280;1813;52.016;8.714;2023-04-21T13:13:04;-16261.94;;;-139.71;33.27
3598;BME280;1813;52.016;8.714;2023-04-21T13:15:40;-16261.94;;;-139.71;33.06
3598;BME280;1813;52.016;8.714;2023-04-21T13:18:15;-16261.94;;;-139.71;32.94
3598;BME280;1813;52.016;8.714;2023-04-21T13:20:50;-16261.94;;;-139.71;33.17
3598;BME280;1813;52.016;8.714;2023-04-21T13:23:23;-16261.94;;;-139.71;33.25
3598;BME280;1813;52.016;8.714;2023-04-21T13:25:57;-16261.94;;;-139.71;33.11
3598;BME280;1813;52.016;8.714;2023-04-21T13:28:31;-16261.94;;;-139.71;33.11
3598;BME280;1813;52.016;8.714;2023-04-21T13:31:08;-16261.94;;;-139.71;32.70